createdAt,value
2017-10-04T00:01:42.808Z,72.10
2017-10-04T00:04:11.715Z,72.70
2017-10-04T00:06:39.877Z,72.00
2017-10-04T00:09:08.768Z,72.00
2017-10-04T00:11:37.805Z,72.00
2017-10-04T00:14:05.928Z,72.00
2017-10-04T00:16:34.827Z,72.20
2017-10-04T00:19:02.984Z,72.20
2017-10-04T00:21:31.920Z,72.50
2017-10-04T00:24:00.053Z,72.40
2017-10-04T00:26:28.944Z,72.70
2017-10-04T00:28:57.987Z,72.60
2017-10-04T00:31:26.108Z,72.20
2017-10-04T00:33:55.037Z,72.40
2017-10-04T00:36:23.181Z,72.40
2017-10-04T00:38:52.077Z,72.50
2017-10-04T00:41:20.991Z,72.50
2017-10-04T00:43:49.121Z,72.50
2017-10-04T00:46:17.385Z,72.70
2017-10-04T00:48:45.536Z,72.90
2017-10-04T00:51:13.665Z,73.00
2017-10-04T00:53:41.820Z,72.80
2017-10-04T00:56:10.712Z,72.60
2017-10-04T00:58:39.636Z,72.60
2017-10-04T01:01:07.766Z,72.50
2017-10-04T01:03:36.044Z,72.50
2017-10-04T01:06:04.194Z,72.30
2017-10-04T01:08:32.322Z,72.10
2017-10-04T01:11:00.492Z,72.20
2017-10-04T01:13:28.616Z,72.30
2017-10-04T01:15:56.748Z,72.40
2017-10-04T01:18:24.899Z,72.60
2017-10-04T01:20:53.948Z,72.70
2017-10-04T01:23:22.081Z,72.70
2017-10-04T01:25:50.216Z,72.40
2017-10-04T01:28:18.391Z,72.60
2017-10-04T01:30:46.512Z,73.40
2017-10-04T01:33:14.673Z,72.80
2017-10-04T01:35:42.824Z,72.70
2017-10-04T01:38:11.712Z,73.40
2017-10-04T01:40:40.760Z,72.80
2017-10-04T01:43:08.884Z,72.60
2017-10-04T01:45:37.794Z,73.20
2017-10-04T01:48:05.945Z,73.10
2017-10-04T01:50:34.837Z,73.80
2017-10-04T01:53:03.788Z,74.50
2017-10-04T01:55:31.911Z,74.40
2017-10-04T01:58:00.195Z,74.80
2017-10-04T02:00:28.332Z,74.80
2017-10-04T02:02:56.453Z,74.90
2017-10-04T02:05:24.599Z,74.90
2017-10-04T02:07:53.495Z,74.40
2017-10-04T02:10:21.673Z,74.40
2017-10-04T02:12:50.556Z,73.90
2017-10-04T02:15:19.460Z,73.70
2017-10-04T02:17:47.612Z,73.70
2017-10-04T02:20:16.503Z,73.70
2017-10-04T02:22:45.429Z,73.80
2017-10-04T02:25:13.551Z,73.70
2017-10-04T02:27:41.696Z,73.80
2017-10-04T02:30:09.838Z,74.30
2017-10-04T02:32:37.960Z,73.60
2017-10-04T02:35:06.232Z,73.60
2017-10-04T02:37:34.379Z,73.60
2017-10-04T02:40:02.531Z,73.70
2017-10-04T02:42:30.668Z,73.50
2017-10-04T02:44:58.806Z,73.40
2017-10-04T02:47:26.960Z,73.40
2017-10-04T02:49:55.084Z,74.20
2017-10-04T02:52:23.360Z,73.50
2017-10-04T02:54:51.501Z,73.50
2017-10-04T02:57:19.656Z,73.30
2017-10-04T02:59:47.792Z,73.40
2017-10-04T03:02:15.941Z,73.50
2017-10-04T03:04:44.096Z,73.60
2017-10-04T03:07:12.237Z,73.70
2017-10-04T03:09:40.513Z,73.80
2017-10-04T03:12:08.635Z,73.90
2017-10-04T03:14:36.755Z,73.90
2017-10-04T03:17:04.903Z,74.10
2017-10-04T03:19:33.816Z,74.10
2017-10-04T03:22:01.968Z,74.10
2017-10-04T03:24:30.861Z,74.20
2017-10-04T03:26:59.881Z,74.40
2017-10-04T03:29:28.012Z,74.20
2017-10-04T03:31:56.169Z,74.20
2017-10-04T03:34:24.319Z,74.20
2017-10-04T03:36:52.436Z,74.00
2017-10-04T03:39:20.604Z,73.90
2017-10-04T03:41:48.732Z,74.00
2017-10-04T03:44:17.011Z,73.30
2017-10-04T03:46:45.140Z,73.50
2017-10-04T03:49:13.272Z,73.50
2017-10-04T03:51:41.435Z,73.60
2017-10-04T03:54:09.597Z,73.50
2017-10-04T03:56:37.769Z,73.40
2017-10-04T03:59:05.901Z,73.50
2017-10-04T04:01:34.156Z,73.90
2017-10-04T04:04:02.293Z,74.00
2017-10-04T04:06:30.468Z,74.10
2017-10-04T04:08:58.605Z,74.10
2017-10-04T04:11:27.505Z,74.20
2017-10-04T04:13:56.421Z,74.20
2017-10-04T04:16:24.555Z,74.20
2017-10-04T04:18:53.578Z,75.10
2017-10-04T04:21:21.708Z,74.40
2017-10-04T04:23:49.874Z,74.20
2017-10-04T04:26:18.004Z,74.20
2017-10-04T04:28:46.166Z,74.40
2017-10-04T04:31:14.329Z,74.50
2017-10-04T04:33:42.450Z,74.60
2017-10-04T04:36:10.738Z,74.60
2017-10-04T04:38:38.865Z,74.60
2017-10-04T04:41:07.008Z,74.60
2017-10-04T04:43:35.161Z,74.80
2017-10-04T04:46:03.294Z,74.70
2017-10-04T04:48:31.457Z,74.60
2017-10-04T04:50:59.592Z,74.40
2017-10-04T04:53:27.744Z,74.60
2017-10-04T04:55:56.005Z,74.70
2017-10-04T04:58:24.132Z,74.70
2017-10-04T05:00:52.289Z,74.90
2017-10-04T05:03:20.417Z,74.90
2017-10-04T05:05:48.545Z,74.90
2017-10-04T05:08:16.696Z,75.00
2017-10-04T05:10:44.829Z,75.00
2017-10-04T05:13:13.114Z,75.00
2017-10-04T05:15:41.232Z,74.60
2017-10-04T05:18:09.412Z,74.50
2017-10-04T05:20:38.320Z,74.50
2017-10-04T05:23:07.199Z,74.50
2017-10-04T05:25:36.128Z,74.70
2017-10-04T05:28:04.260Z,74.70
2017-10-04T05:30:33.308Z,74.60
2017-10-04T05:33:01.439Z,74.50
2017-10-04T05:35:29.596Z,74.80
2017-10-04T05:37:58.495Z,75.10
2017-10-04T05:40:27.445Z,75.20
2017-10-04T05:42:55.559Z,75.00
2017-10-04T05:45:24.448Z,75.30
2017-10-04T05:47:53.485Z,75.40
2017-10-04T05:50:21.613Z,75.40
2017-10-04T05:52:50.544Z,76.00
2017-10-04T05:55:18.689Z,75.90
2017-10-04T05:57:47.610Z,76.50
2017-10-04T06:00:15.769Z,76.40
2017-10-04T06:02:43.889Z,76.90
2017-10-04T06:05:12.151Z,76.90
2017-10-04T06:07:40.307Z,77.00
2017-10-04T06:10:08.472Z,77.30
2017-10-04T06:12:36.605Z,77.50
2017-10-04T06:15:05.533Z,77.60
2017-10-04T06:17:33.664Z,77.50
2017-10-04T06:20:01.804Z,77.40
2017-10-04T06:22:30.125Z,77.60
2017-10-04T06:24:59.020Z,77.90
2017-10-04T06:27:27.925Z,78.20
2017-10-04T06:29:56.095Z,78.20
2017-10-04T06:32:24.226Z,78.30
2017-10-04T06:34:52.376Z,78.20
2017-10-04T06:37:20.507Z,78.30
2017-10-04T06:39:48.809Z,78.00
2017-10-04T06:42:16.931Z,78.10
2017-10-04T06:44:45.073Z,78.40
2017-10-04T06:47:13.236Z,78.30
2017-10-04T06:49:41.369Z,78.20
2017-10-04T06:52:10.317Z,78.40
2017-10-04T06:54:38.444Z,78.40
2017-10-04T06:57:06.668Z,78.10
2017-10-04T06:59:34.811Z,77.90
2017-10-04T07:02:02.938Z,78.20
2017-10-04T07:04:31.094Z,78.20
2017-10-04T07:06:59.233Z,78.20
2017-10-04T07:09:27.404Z,78.10
2017-10-04T07:11:56.322Z,77.90
2017-10-04T07:14:24.452Z,77.90
2017-10-04T07:16:52.653Z,78.00
2017-10-04T07:19:20.780Z,78.20
2017-10-04T07:21:49.708Z,78.30
2017-10-04T07:24:17.849Z,78.30
2017-10-04T07:26:46.748Z,77.90
2017-10-04T07:29:15.038Z,77.90
2017-10-04T07:31:43.208Z,78.30
2017-10-04T07:34:12.126Z,77.90
2017-10-04T07:36:40.264Z,77.90
2017-10-04T07:39:08.465Z,78.30
2017-10-04T07:41:36.573Z,78.30
2017-10-04T07:44:04.704Z,78.20
2017-10-04T07:46:33.739Z,78.30
2017-10-04T07:49:01.867Z,78.30
2017-10-04T07:51:30.041Z,78.50
2017-10-04T07:53:58.212Z,77.70
2017-10-04T07:56:26.349Z,77.80
2017-10-04T07:58:54.505Z,77.90
2017-10-04T08:01:22.780Z,77.80
2017-10-04T08:03:50.940Z,78.10
2017-10-04T08:06:19.073Z,77.10
2017-10-04T08:08:47.338Z,78.20
2017-10-04T08:11:15.487Z,77.50
2017-10-04T08:13:43.637Z,77.10
2017-10-04T08:16:11.770Z,77.30
2017-10-04T08:18:39.907Z,77.30
2017-10-04T08:21:08.089Z,76.70
2017-10-04T08:23:36.216Z,76.90
2017-10-04T08:26:04.573Z,76.70
2017-10-04T08:28:32.728Z,77.30
2017-10-04T08:31:01.652Z,77.20
2017-10-04T08:33:29.836Z,77.20
2017-10-04T08:35:57.968Z,76.80
2017-10-04T08:38:26.247Z,77.10
2017-10-04T08:40:55.147Z,77.00
2017-10-04T08:43:23.328Z,77.00
2017-10-04T08:45:51.455Z,76.20
2017-10-04T08:48:19.609Z,74.90
2017-10-04T08:50:47.757Z,76.20
2017-10-04T08:53:15.932Z,74.50
2017-10-04T08:55:44.192Z,73.80
2017-10-04T08:58:12.322Z,73.10
2017-10-04T09:00:40.476Z,73.40
2017-10-04T09:03:08.649Z,73.90
2017-10-04T09:05:36.804Z,72.90
2017-10-04T09:08:04.965Z,72.60
2017-10-04T09:10:33.221Z,72.40
2017-10-04T09:13:01.388Z,73.60
2017-10-04T09:15:30.289Z,73.20
2017-10-04T09:17:58.472Z,73.10
2017-10-04T09:20:26.631Z,73.00
2017-10-04T09:22:54.760Z,73.00
2017-10-04T09:25:22.912Z,73.00
2017-10-04T09:27:51.048Z,73.00
2017-10-04T09:30:19.213Z,73.50
2017-10-04T09:32:48.104Z,71.80
2017-10-04T09:35:17.000Z,71.10
2017-10-04T09:37:45.928Z,69.50
2017-10-04T09:40:14.072Z,69.50
2017-10-04T09:42:42.254Z,71.40
2017-10-04T09:45:10.376Z,71.50
2017-10-04T09:47:38.497Z,69.40
2017-10-04T09:50:06.778Z,67.60
2017-10-04T09:52:34.928Z,68.50
2017-10-04T09:55:03.904Z,66.20
2017-10-04T09:57:32.037Z,66.10
2017-10-04T10:00:00.160Z,67.70
2017-10-04T10:02:29.095Z,67.20
2017-10-04T10:04:57.220Z,67.10
2017-10-04T10:07:25.497Z,66.10
2017-10-04T10:09:53.626Z,66.20
2017-10-04T10:12:21.780Z,66.00
2017-10-04T10:14:49.948Z,66.60
2017-10-04T10:17:18.071Z,67.40
2017-10-04T10:19:46.212Z,67.20
2017-10-04T10:22:14.344Z,64.70
2017-10-04T10:24:43.368Z,62.20
2017-10-04T10:27:11.512Z,62.20
2017-10-04T10:29:40.500Z,62.00
2017-10-04T10:32:09.399Z,62.90
2017-10-04T10:34:38.304Z,60.20
2017-10-04T10:37:06.460Z,60.20
2017-10-04T10:39:35.364Z,62.10
2017-10-04T10:42:03.537Z,62.00
2017-10-04T10:44:31.693Z,59.90
2017-10-04T10:46:59.827Z,60.00
2017-10-04T10:49:28.084Z,61.40
2017-10-04T10:51:56.217Z,61.60
2017-10-04T10:54:25.156Z,60.10
2017-10-04T10:56:53.287Z,60.10
2017-10-04T10:59:22.249Z,60.10
2017-10-04T11:01:50.376Z,60.00
2017-10-04T11:04:18.513Z,60.70
2017-10-04T11:06:46.672Z,60.30
2017-10-04T11:09:14.805Z,60.60
2017-10-04T11:11:42.961Z,61.00
2017-10-04T11:14:11.100Z,62.80
2017-10-04T11:16:39.369Z,62.60
2017-10-04T11:19:07.515Z,62.70
2017-10-04T11:21:35.696Z,61.70
2017-10-04T11:24:03.845Z,61.50
2017-10-04T11:26:32.035Z,61.10
2017-10-04T11:29:00.156Z,60.90
2017-10-04T11:31:29.056Z,60.70
2017-10-04T11:33:57.324Z,60.70
2017-10-04T11:36:26.220Z,59.20
2017-10-04T11:38:54.376Z,60.00
2017-10-04T11:41:22.507Z,58.90
2017-10-04T11:43:50.653Z,59.80
2017-10-04T11:46:18.784Z,59.50
2017-10-04T11:48:51.081Z,60.00
2017-10-04T11:51:20.019Z,59.70
2017-10-04T11:53:48.170Z,59.80
2017-10-04T11:56:16.344Z,58.80
2017-10-04T11:58:44.487Z,61.00
2017-10-04T12:01:13.388Z,59.80
2017-10-04T12:03:41.544Z,59.70
2017-10-04T12:06:10.441Z,58.40
2017-10-04T12:08:39.386Z,59.80
2017-10-04T12:11:07.532Z,59.80
2017-10-04T12:13:35.661Z,58.50
2017-10-04T12:16:03.812Z,57.60
2017-10-04T12:18:31.947Z,56.20
2017-10-04T12:21:00.098Z,55.40
2017-10-04T12:23:28.988Z,56.50
2017-10-04T12:25:57.931Z,55.70
2017-10-04T12:28:26.069Z,55.70
2017-10-04T12:30:54.244Z,55.60
2017-10-04T12:33:22.379Z,54.60
2017-10-04T12:35:50.533Z,55.30
2017-10-04T12:38:18.674Z,55.80
2017-10-04T12:40:46.798Z,55.40
2017-10-04T12:43:15.064Z,54.00
2017-10-04T12:45:43.228Z,56.00
2017-10-04T12:48:11.358Z,55.10
2017-10-04T12:50:39.557Z,52.70
2017-10-04T12:53:08.492Z,52.70
2017-10-04T12:55:36.662Z,52.70
2017-10-04T12:58:04.793Z,53.10
2017-10-04T13:00:33.011Z,53.30
2017-10-04T13:03:01.150Z,53.90
2017-10-04T13:05:29.346Z,52.70
2017-10-04T13:07:57.485Z,52.70
2017-10-04T13:10:25.632Z,54.10
2017-10-04T13:12:53.794Z,54.60
2017-10-04T13:15:22.690Z,54.40
2017-10-04T13:17:51.625Z,53.00
2017-10-04T13:20:19.745Z,52.90
2017-10-04T13:22:48.649Z,51.80
2017-10-04T13:25:24.897Z,52.70
2017-10-04T13:28:01.313Z,53.90
2017-10-04T13:30:29.577Z,53.90
2017-10-04T13:32:57.708Z,54.20
2017-10-04T13:35:25.868Z,54.50
2017-10-04T13:37:53.995Z,51.20
2017-10-04T13:40:22.313Z,51.90
2017-10-04T13:42:50.448Z,53.20
2017-10-04T13:45:18.600Z,52.90
2017-10-04T13:47:47.514Z,50.50
2017-10-04T13:50:15.664Z,50.40
2017-10-04T13:52:43.866Z,51.50
2017-10-04T13:55:11.977Z,51.30
2017-10-04T13:57:40.113Z,51.40
2017-10-04T14:00:08.381Z,50.70
2017-10-04T14:02:36.522Z,51.60
2017-10-04T14:05:05.472Z,51.50
2017-10-04T14:07:33.609Z,51.50
2017-10-04T14:10:02.079Z,51.70
2017-10-04T14:12:30.980Z,52.70
2017-10-04T14:14:59.113Z,52.70
2017-10-04T14:17:27.378Z,51.80
2017-10-04T14:19:55.506Z,51.90
2017-10-04T14:22:23.674Z,51.60
2017-10-04T14:24:51.829Z,50.80
2017-10-04T14:27:20.752Z,51.20
2017-10-04T14:29:48.888Z,51.20
2017-10-04T14:32:17.925Z,52.40
2017-10-04T14:34:46.045Z,52.30
2017-10-04T14:37:14.212Z,53.40
2017-10-04T14:39:42.366Z,52.40
2017-10-04T14:42:10.484Z,52.60
2017-10-04T14:44:38.635Z,52.00
2017-10-04T14:47:06.772Z,52.10
2017-10-04T14:49:35.060Z,52.60
2017-10-04T14:52:03.184Z,52.90
2017-10-04T14:54:31.475Z,53.20
2017-10-04T14:56:59.628Z,53.10
2017-10-04T14:59:28.552Z,52.40
2017-10-04T15:01:56.680Z,52.40
2017-10-04T15:04:25.614Z,52.90
2017-10-04T15:06:53.878Z,52.80
2017-10-04T15:09:22.013Z,53.20
2017-10-04T15:11:50.196Z,51.30
2017-10-04T15:14:19.093Z,53.40
2017-10-04T15:16:48.013Z,52.80
2017-10-04T15:19:16.152Z,52.80
2017-10-04T15:21:45.048Z,53.40
2017-10-04T15:24:14.000Z,53.80
2017-10-04T15:26:42.142Z,53.60
2017-10-04T15:29:10.282Z,54.40
2017-10-04T15:31:39.308Z,54.70
2017-10-04T15:34:07.472Z,54.60
2017-10-04T15:36:35.617Z,54.70
2017-10-04T15:39:03.766Z,54.90
2017-10-04T15:41:31.957Z,55.20
2017-10-04T15:44:00.084Z,55.70
2017-10-04T15:46:28.212Z,55.10
2017-10-04T15:48:57.245Z,55.90
2017-10-04T15:51:25.404Z,55.90
2017-10-04T15:53:53.548Z,55.90
2017-10-04T15:56:21.712Z,55.40
2017-10-04T15:58:49.858Z,55.60
2017-10-04T16:01:17.993Z,55.60
2017-10-04T16:03:46.185Z,56.30
2017-10-04T16:06:14.325Z,56.50
2017-10-04T16:08:43.266Z,56.60
2017-10-04T16:11:11.401Z,56.60
2017-10-04T16:13:40.454Z,56.30
2017-10-04T16:16:08.624Z,56.20
2017-10-04T16:18:36.760Z,56.70
2017-10-04T16:21:05.073Z,57.30
2017-10-04T16:23:33.220Z,57.90
2017-10-04T16:26:01.360Z,57.80
2017-10-04T16:28:29.539Z,57.50
2017-10-04T16:30:58.446Z,57.50
2017-10-04T16:33:26.601Z,57.40
2017-10-04T16:35:54.752Z,58.60
2017-10-04T16:38:23.030Z,59.10
2017-10-04T16:40:51.164Z,58.90
2017-10-04T16:43:19.314Z,58.60
2017-10-04T16:45:47.475Z,58.90
2017-10-04T16:48:15.610Z,58.70
2017-10-04T16:50:43.815Z,59.00
2017-10-04T16:53:11.982Z,59.20
2017-10-04T16:55:41.060Z,58.90
2017-10-04T16:58:09.193Z,58.90
2017-10-04T17:00:37.331Z,59.40
2017-10-04T17:03:05.490Z,59.30
2017-10-04T17:05:34.399Z,60.10
2017-10-04T17:08:02.591Z,60.00
2017-10-04T17:10:30.730Z,60.10
2017-10-04T17:12:58.865Z,59.30
2017-10-04T17:15:27.146Z,59.90
2017-10-04T17:17:55.284Z,60.20
2017-10-04T17:20:23.457Z,59.80
2017-10-04T17:22:51.619Z,59.00
2017-10-04T17:25:19.783Z,59.20
2017-10-04T17:27:48.712Z,59.40
2017-10-04T17:30:16.857Z,59.30
2017-10-04T17:32:45.039Z,59.30
2017-10-04T17:35:13.185Z,59.60
2017-10-04T17:37:42.126Z,59.80
2017-10-04T17:40:10.270Z,59.80
2017-10-04T17:42:38.450Z,60.40
2017-10-04T17:45:06.588Z,60.30
2017-10-04T17:47:34.731Z,59.50
2017-10-04T17:50:03.015Z,60.00
2017-10-04T17:52:31.212Z,60.10
2017-10-04T17:54:59.382Z,59.80
2017-10-04T17:57:27.521Z,59.80
2017-10-04T17:59:55.700Z,60.30
2017-10-04T18:02:23.836Z,60.90
2017-10-04T18:04:51.984Z,60.40
2017-10-04T18:07:20.170Z,59.50
2017-10-04T18:09:49.102Z,60.00
2017-10-04T18:12:17.293Z,60.00
2017-10-04T18:14:45.423Z,60.00
2017-10-04T18:17:13.562Z,60.40
2017-10-04T18:19:41.724Z,60.50
2017-10-04T18:22:09.861Z,61.10
2017-10-04T18:24:38.060Z,61.50
2017-10-04T18:27:06.201Z,61.70
2017-10-04T18:29:34.377Z,61.50
2017-10-04T18:32:02.529Z,61.40
2017-10-04T18:34:30.680Z,62.30
2017-10-04T18:36:58.843Z,62.20
2017-10-04T18:39:26.985Z,61.90
2017-10-04T18:41:55.205Z,62.20
2017-10-04T18:44:23.330Z,62.40
2017-10-04T18:46:51.525Z,62.00
2017-10-04T18:49:19.665Z,62.10
2017-10-04T18:51:47.808Z,61.70
2017-10-04T18:54:16.764Z,61.90
2017-10-04T18:56:44.901Z,61.80
2017-10-04T18:59:13.124Z,62.00
2017-10-04T19:01:42.054Z,62.30
2017-10-04T19:04:10.259Z,62.20
2017-10-04T19:06:38.420Z,62.30
2017-10-04T19:09:06.550Z,62.80
2017-10-04T19:11:34.722Z,62.60
2017-10-04T19:14:03.633Z,62.20
2017-10-04T19:16:31.951Z,62.20
2017-10-04T19:19:00.090Z,62.90
2017-10-04T19:21:28.266Z,62.70
2017-10-04T19:23:56.449Z,62.90
2017-10-04T19:26:24.587Z,62.60
2017-10-04T19:28:53.520Z,62.90
2017-10-04T19:31:22.441Z,63.10
2017-10-04T19:33:50.736Z,62.90
2017-10-04T19:36:18.888Z,63.00
2017-10-04T19:38:47.053Z,63.20
2017-10-04T19:41:15.255Z,62.80
2017-10-04T19:43:44.271Z,63.00
2017-10-04T19:46:21.471Z,62.90
2017-10-04T19:49:02.175Z,63.80
2017-10-04T19:51:39.103Z,63.70
2017-10-04T19:54:22.760Z,63.80
2017-10-04T19:56:51.813Z,63.70
2017-10-04T19:59:22.779Z,64.20
2017-10-04T20:01:50.932Z,63.50
2017-10-04T20:04:31.528Z,63.70
2017-10-04T20:07:08.675Z,63.70
2017-10-04T20:09:47.062Z,63.80
2017-10-04T20:12:23.404Z,63.00
2017-10-04T20:14:59.954Z,63.40
2017-10-04T20:17:37.563Z,63.40
2017-10-04T20:20:15.528Z,63.40
2017-10-04T20:25:35.217Z,64.00
2017-10-04T20:28:11.261Z,64.10
2017-10-04T20:30:46.984Z,64.30
2017-10-04T20:33:23.736Z,64.40
2017-10-04T20:35:59.593Z,64.40
2017-10-04T20:38:34.870Z,63.10
2017-10-04T20:41:10.713Z,63.80
2017-10-04T20:43:46.700Z,64.10
2017-10-04T20:46:22.626Z,63.70
2017-10-04T20:48:58.768Z,63.40
2017-10-04T20:51:33.942Z,63.20
2017-10-04T20:54:24.529Z,63.50
2017-10-04T20:57:15.522Z,63.70
2017-10-04T21:00:05.698Z,63.30
2017-10-04T21:02:56.681Z,64.00
2017-10-04T21:05:47.980Z,64.40
2017-10-04T21:08:25.980Z,64.30
2017-10-04T21:10:54.138Z,63.90
2017-10-04T21:13:22.288Z,64.10
2017-10-04T21:15:50.451Z,63.90
2017-10-04T21:18:18.600Z,63.90
2017-10-04T21:20:46.802Z,64.20
2017-10-04T21:23:14.935Z,64.20
2017-10-04T21:25:43.851Z,64.20
2017-10-04T21:28:12.013Z,64.20
2017-10-04T21:30:40.907Z,64.30
2017-10-04T21:33:09.041Z,64.30
2017-10-04T21:35:37.208Z,64.30
2017-10-04T21:38:05.488Z,64.40
2017-10-04T21:40:33.623Z,64.70
2017-10-04T21:43:01.784Z,64.50
2017-10-04T21:45:29.948Z,64.50
2017-10-04T21:47:58.076Z,64.60
2017-10-04T21:50:26.228Z,64.60
2017-10-04T21:52:54.405Z,65.00
2017-10-04T21:55:22.701Z,64.80
2017-10-04T21:57:50.834Z,64.80
2017-10-04T22:00:18.980Z,64.60
2017-10-04T22:02:47.901Z,64.80
2017-10-04T22:05:16.043Z,64.80
2017-10-04T22:07:45.079Z,65.00
2017-10-04T22:10:13.242Z,65.00
2017-10-04T22:12:41.388Z,65.10
2017-10-04T22:15:09.544Z,65.00
2017-10-04T22:17:38.474Z,65.50
2017-10-04T22:20:06.628Z,65.50
2017-10-04T22:22:34.752Z,65.60
2017-10-04T22:25:03.056Z,65.70
2017-10-04T22:27:31.195Z,65.40
2017-10-04T22:29:59.333Z,65.60
2017-10-04T22:32:27.509Z,65.50
2017-10-04T22:34:56.402Z,65.50
2017-10-04T22:37:24.556Z,65.50
2017-10-04T22:39:53.486Z,65.60
2017-10-04T22:42:21.761Z,65.60
2017-10-04T22:44:49.905Z,65.60
2017-10-04T22:47:18.089Z,65.80
2017-10-04T22:49:46.228Z,65.60
2017-10-04T22:52:14.360Z,66.10
2017-10-04T22:54:42.545Z,66.30
2017-10-04T22:57:10.677Z,66.10
2017-10-04T22:59:38.944Z,66.40
2017-10-04T23:02:07.076Z,66.50
2017-10-04T23:04:37.211Z,66.60
2017-10-04T23:07:05.324Z,66.50
2017-10-04T23:09:33.457Z,66.40
2017-10-04T23:12:01.625Z,66.50
2017-10-04T23:14:29.753Z,66.50
2017-10-04T23:16:57.920Z,66.90
2017-10-04T23:19:26.049Z,67.00
2017-10-04T23:21:54.181Z,67.10
2017-10-04T23:24:22.342Z,67.60
2017-10-04T23:26:50.485Z,67.20
2017-10-04T23:29:19.421Z,67.30
2017-10-04T23:31:47.556Z,67.20
2017-10-04T23:34:16.458Z,67.80
2017-10-04T23:36:44.724Z,67.80
2017-10-04T23:39:12.865Z,68.00
2017-10-04T23:41:41.045Z,68.00
2017-10-04T23:44:09.177Z,67.80
2017-10-04T23:46:37.352Z,68.20
2017-10-04T23:49:05.481Z,68.30
2017-10-04T23:51:34.386Z,68.00
2017-10-04T23:54:02.676Z,68.00
2017-10-04T23:56:30.819Z,67.90
2017-10-04T23:58:59.744Z,68.30
